createdAt,value
2019-03-31T00:03:14.677Z,23.77
2019-03-31T00:07:15.447Z,30.13
2019-03-31T00:11:14.731Z,26.20
2019-03-31T00:15:16.585Z,25.13
2019-03-31T00:19:15.203Z,27.97
2019-03-31T00:23:13.825Z,28.93
2019-03-31T00:27:12.403Z,27.30
2019-03-31T00:31:21.431Z,28.40
2019-03-31T00:35:11.260Z,31.83
2019-03-31T00:39:09.996Z,28.40
2019-03-31T00:43:08.602Z,28.67
2019-03-31T00:47:07.263Z,34.23
2019-03-31T00:51:05.876Z,29.77
2019-03-31T00:55:05.117Z,29.43
2019-03-31T00:59:05.559Z,31.60
2019-03-31T01:03:04.982Z,32.00
2019-03-31T01:07:06.105Z,28.50
2019-03-31T01:11:08.171Z,33.23
2019-03-31T01:15:11.480Z,25.23
2019-03-31T01:19:10.515Z,25.57
2019-03-31T01:23:09.185Z,31.57
2019-03-31T01:27:10.704Z,34.37
2019-03-31T01:31:09.453Z,30.27
2019-03-31T01:35:10.075Z,33.63
2019-03-31T01:39:09.907Z,29.90
2019-03-31T01:43:09.435Z,30.70
2019-03-31T01:47:09.962Z,28.27
2019-03-31T01:51:08.706Z,29.20
2019-03-31T01:55:08.748Z,31.97
2019-03-31T01:59:07.297Z,35.00
2019-03-31T02:03:06.311Z,34.23
2019-03-31T02:07:07.431Z,36.43
2019-03-31T02:11:06.189Z,37.30
2019-03-31T02:15:10.233Z,36.63
2019-03-31T02:19:08.818Z,37.60
2019-03-31T02:23:07.591Z,40.57
2019-03-31T02:27:06.145Z,38.20
2019-03-31T02:31:04.752Z,34.60
2019-03-31T02:35:03.426Z,38.87
2019-03-31T02:39:02.031Z,41.10
2019-03-31T02:43:00.664Z,38.20
2019-03-31T02:47:01.991Z,36.27
2019-03-31T02:51:01.600Z,40.67
2019-03-31T02:55:00.512Z,37.57
2019-03-31T02:59:05.340Z,38.63
2019-03-31T03:03:04.600Z,35.77
2019-03-31T03:07:08.157Z,42.43
2019-03-31T03:11:08.727Z,35.93
2019-03-31T03:15:07.960Z,35.63
2019-03-31T03:19:06.579Z,35.73
2019-03-31T03:23:05.192Z,38.50
2019-03-31T03:27:03.815Z,36.77
2019-03-31T03:31:02.722Z,35.30
2019-03-31T03:35:02.002Z,38.90
2019-03-31T03:39:00.804Z,40.63
2019-03-31T03:42:59.382Z,40.43
2019-03-31T03:46:58.007Z,35.17
2019-03-31T03:50:56.570Z,39.57
2019-03-31T03:54:55.192Z,49.27
2019-03-31T03:58:53.797Z,43.73
2019-03-31T04:02:52.458Z,52.73
2019-03-31T04:06:51.075Z,62.33
2019-03-31T04:10:52.739Z,66.33
2019-03-31T04:14:56.909Z,67.90
2019-03-31T04:18:58.875Z,48.30
2019-03-31T04:22:57.455Z,50.67
2019-03-31T04:26:59.038Z,51.20
2019-03-31T04:30:57.725Z,45.57
2019-03-31T04:34:56.381Z,56.83
2019-03-31T04:38:54.977Z,62.97
2019-03-31T04:42:53.837Z,52.23
2019-03-31T04:46:52.409Z,45.63
2019-03-31T04:50:52.196Z,53.57
2019-03-31T04:54:51.039Z,58.53
2019-03-31T04:58:49.648Z,44.90
2019-03-31T05:02:48.274Z,49.47
2019-03-31T05:06:47.161Z,47.77
2019-03-31T05:10:45.782Z,52.17
2019-03-31T05:14:50.092Z,58.23
2019-03-31T05:18:48.755Z,57.23
2019-03-31T05:22:47.377Z,59.87
2019-03-31T05:26:46.020Z,79.43
2019-03-31T05:30:44.712Z,75.73
2019-03-31T05:34:43.317Z,62.27
2019-03-31T05:38:41.973Z,65.13
2019-03-31T05:42:40.562Z,77.07
2019-03-31T05:46:39.334Z,56.93
2019-03-31T05:50:37.924Z,73.60
2019-03-31T05:54:36.912Z,81.57
2019-03-31T05:58:35.450Z,85.80
2019-03-31T06:02:34.031Z,84.97
2019-03-31T06:06:36.821Z,94.17
2019-03-31T06:10:34.357Z,96.77
2019-03-31T06:14:33.026Z,80.23
2019-03-31T06:18:31.689Z,82.60
2019-03-31T06:22:30.326Z,77.30
2019-03-31T06:26:28.892Z,82.13
2019-03-31T06:30:29.306Z,92.93
2019-03-31T06:34:30.955Z,88.73
2019-03-31T06:38:29.884Z,98.83
2019-03-31T06:42:28.770Z,89.93
2019-03-31T06:46:27.396Z,97.97
2019-03-31T06:50:26.617Z,97.97
2019-03-31T06:54:25.774Z,97.83
2019-03-31T06:58:24.459Z,92.33
2019-03-31T07:02:23.281Z,94.03
2019-03-31T07:06:22.282Z,97.07
2019-03-31T07:10:20.976Z,100.63
2019-03-31T07:14:19.709Z,98.83
2019-03-31T07:18:21.604Z,104.23
2019-03-31T07:22:20.187Z,100.97
2019-03-31T07:26:18.749Z,105.33
2019-03-31T07:30:19.610Z,97.63
2019-03-31T07:34:18.188Z,98.63
2019-03-31T07:38:16.858Z,97.87
2019-03-31T07:42:17.873Z,99.20
2019-03-31T07:46:18.652Z,88.13
2019-03-31T07:50:18.601Z,88.03
2019-03-31T07:54:17.509Z,92.60
2019-03-31T07:58:16.221Z,107.30
2019-03-31T08:02:14.944Z,88.20
2019-03-31T08:06:13.902Z,73.27
2019-03-31T08:10:12.916Z,88.97
2019-03-31T08:14:11.494Z,82.13
2019-03-31T08:18:10.516Z,87.03
2019-03-31T08:22:11.897Z,71.57
2019-03-31T08:26:10.505Z,74.60
2019-03-31T08:30:12.064Z,65.40
2019-03-31T08:34:10.729Z,80.23
2019-03-31T08:38:09.362Z,74.23
2019-03-31T08:42:08.047Z,74.60
2019-03-31T08:46:06.824Z,80.40
2019-03-31T08:50:07.309Z,79.43
2019-03-31T08:54:09.191Z,75.77
2019-03-31T08:58:07.924Z,78.73
2019-03-31T09:02:26.337Z,71.83
2019-03-31T09:06:25.110Z,68.63
2019-03-31T09:10:23.962Z,79.30
2019-03-31T09:14:22.672Z,69.70
2019-03-31T09:18:21.271Z,71.67
2019-03-31T09:22:20.005Z,60.60
2019-03-31T09:26:18.648Z,69.07
2019-03-31T09:30:17.666Z,65.93
2019-03-31T09:34:16.249Z,55.40
2019-03-31T09:38:14.858Z,59.30
2019-03-31T09:42:13.540Z,52.70
2019-03-31T09:46:12.131Z,46.17
2019-03-31T09:50:16.968Z,44.80
2019-03-31T09:54:13.796Z,51.30
2019-03-31T09:58:12.404Z,49.47
2019-03-31T10:02:18.005Z,50.57
2019-03-31T10:06:34.284Z,45.10
2019-03-31T10:10:33.592Z,52.73
2019-03-31T10:14:32.375Z,45.97
2019-03-31T10:18:31.008Z,46.10
2019-03-31T10:22:31.730Z,42.73
2019-03-31T10:26:32.119Z,46.07
2019-03-31T10:30:35.537Z,37.17
2019-03-31T10:34:34.296Z,35.43
2019-03-31T10:38:33.187Z,35.97
2019-03-31T10:42:32.170Z,29.33
2019-03-31T10:46:33.682Z,29.77
2019-03-31T10:50:32.317Z,29.27
2019-03-31T10:54:30.970Z,31.85
2019-03-31T10:58:29.596Z,26.12
2019-03-31T11:02:28.246Z,26.23
2019-03-31T11:06:29.779Z,24.43
2019-03-31T11:10:28.653Z,24.13
2019-03-31T11:14:27.284Z,20.70
2019-03-31T11:18:25.928Z,25.73
2019-03-31T11:22:35.085Z,25.80
2019-03-31T11:26:33.735Z,20.43
2019-03-31T11:30:33.032Z,22.30
2019-03-31T11:34:49.870Z,23.73
2019-03-31T11:38:48.849Z,25.63
2019-03-31T11:42:47.852Z,26.77
2019-03-31T11:46:46.805Z,19.07
2019-03-31T11:50:45.621Z,23.57
2019-03-31T11:54:45.940Z,25.40
2019-03-31T11:58:44.452Z,16.80
2019-03-31T12:02:43.646Z,22.17
2019-03-31T12:06:42.298Z,22.70
2019-03-31T12:10:40.975Z,24.47
2019-03-31T12:14:39.563Z,20.87
2019-03-31T12:18:38.171Z,16.67
2019-03-31T12:22:37.156Z,18.53
2019-03-31T12:26:35.842Z,18.77
2019-03-31T12:30:37.043Z,19.17
2019-03-31T12:34:35.991Z,19.90
2019-03-31T12:38:37.159Z,16.67
2019-03-31T12:42:36.002Z,17.73
2019-03-31T12:46:34.942Z,20.50
2019-03-31T12:50:33.979Z,24.10
2019-03-31T12:54:32.538Z,17.00
2019-03-31T12:58:31.173Z,21.23
2019-03-31T13:02:29.802Z,16.43
2019-03-31T13:06:28.901Z,18.30
2019-03-31T13:10:27.499Z,18.60
2019-03-31T13:14:26.196Z,14.63
2019-03-31T13:18:27.829Z,17.33
2019-03-31T13:22:25.125Z,16.27
2019-03-31T13:26:23.796Z,18.77
2019-03-31T13:30:22.401Z,27.03
2019-03-31T13:34:21.142Z,19.87
2019-03-31T13:38:20.060Z,16.13
2019-03-31T13:42:18.634Z,15.57
2019-03-31T13:46:20.038Z,14.73
2019-03-31T13:50:18.706Z,18.83
2019-03-31T13:54:17.569Z,13.00
2019-03-31T13:58:18.947Z,18.73
2019-03-31T14:02:16.499Z,19.57
2019-03-31T14:06:15.244Z,12.07
2019-03-31T14:10:14.224Z,10.77
2019-03-31T14:14:12.831Z,19.30
2019-03-31T14:18:11.447Z,12.83
2019-03-31T14:22:10.120Z,15.60
2019-03-31T14:26:08.872Z,10.80
2019-03-31T14:30:08.655Z,13.17
2019-03-31T14:34:07.340Z,15.83
2019-03-31T14:38:10.320Z,12.90
2019-03-31T14:42:09.007Z,10.70
2019-03-31T14:46:07.609Z,12.67
2019-03-31T14:50:08.333Z,11.97
2019-03-31T14:54:07.531Z,10.63
2019-03-31T14:58:08.172Z,11.37
2019-03-31T15:02:06.907Z,10.03
2019-03-31T15:06:05.649Z,9.10
2019-03-31T15:10:08.617Z,11.10
2019-03-31T15:14:07.161Z,13.10
2019-03-31T15:18:05.944Z,13.83
2019-03-31T15:22:04.563Z,7.90
2019-03-31T15:26:03.228Z,9.53
2019-03-31T15:30:05.660Z,9.63
2019-03-31T15:34:04.646Z,8.53
2019-03-31T15:38:03.937Z,9.57
2019-03-31T15:42:03.019Z,6.83
2019-03-31T15:46:02.162Z,7.40
2019-03-31T15:50:01.180Z,6.67
2019-03-31T15:53:59.784Z,5.83
2019-03-31T15:57:58.476Z,6.30
2019-03-31T16:01:57.252Z,7.93
2019-03-31T16:05:58.257Z,9.57
2019-03-31T16:09:59.631Z,5.50
2019-03-31T16:14:01.372Z,8.30
2019-03-31T16:18:00.152Z,9.40
2019-03-31T16:21:58.741Z,6.23
2019-03-31T16:25:58.794Z,12.20
2019-03-31T16:29:57.708Z,11.23
2019-03-31T16:33:57.852Z,12.37
2019-03-31T16:37:56.576Z,7.87
2019-03-31T16:41:55.189Z,12.77
2019-03-31T16:45:53.879Z,11.37
2019-03-31T16:49:52.735Z,8.63
2019-03-31T16:53:58.532Z,8.77
2019-03-31T16:57:57.678Z,11.80
2019-03-31T17:01:56.988Z,10.13
2019-03-31T17:05:55.706Z,10.10
2019-03-31T17:09:54.893Z,9.07
2019-03-31T17:13:54.012Z,13.67
2019-03-31T17:17:53.001Z,15.07
2019-03-31T17:21:51.676Z,10.43
2019-03-31T17:25:50.400Z,6.97
2019-03-31T17:29:49.145Z,19.97
2019-03-31T17:33:50.877Z,14.47
2019-03-31T17:37:49.569Z,9.30
2019-03-31T17:41:48.422Z,9.97
2019-03-31T17:45:47.083Z,5.53
2019-03-31T17:49:46.254Z,11.00
2019-03-31T17:53:45.014Z,10.57
2019-03-31T17:57:43.705Z,9.43
2019-03-31T18:01:43.599Z,12.40
2019-03-31T18:05:42.335Z,16.87
2019-03-31T18:09:41.033Z,10.93
2019-03-31T18:13:39.706Z,12.20
2019-03-31T18:17:38.421Z,8.37
2019-03-31T18:21:37.064Z,17.53
2019-03-31T18:25:35.752Z,13.97
2019-03-31T18:29:34.448Z,10.90
2019-03-31T18:33:33.140Z,12.37
2019-03-31T18:37:31.788Z,11.80
2019-03-31T18:41:30.849Z,10.97
2019-03-31T18:45:29.816Z,10.57
2019-03-31T18:49:28.538Z,8.70
2019-03-31T18:53:45.440Z,20.93
2019-03-31T18:57:58.218Z,20.93
2019-03-31T19:02:07.485Z,19.97
2019-03-31T19:06:23.003Z,11.37
2019-03-31T19:10:26.342Z,12.87
2019-03-31T19:14:29.595Z,14.77
2019-03-31T19:18:38.680Z,12.73
2019-03-31T19:22:38.905Z,10.17
2019-03-31T19:26:48.390Z,9.53
2019-03-31T19:30:41.546Z,11.63
2019-03-31T19:34:41.806Z,9.67
2019-03-31T19:39:01.856Z,16.83
2019-03-31T19:43:07.766Z,8.13
2019-03-31T19:47:11.628Z,9.40
2019-03-31T19:51:14.901Z,18.87
2019-03-31T19:55:33.244Z,15.53
2019-03-31T19:59:33.530Z,11.93
2019-03-31T20:03:33.816Z,16.13
2019-03-31T20:07:36.439Z,13.57
2019-03-31T20:11:52.020Z,12.60
2019-03-31T20:16:04.211Z,11.23
2019-03-31T20:20:10.680Z,16.20
2019-03-31T20:24:10.984Z,11.20
2019-03-31T20:28:14.620Z,10.90
2019-03-31T20:32:31.030Z,9.33
2019-03-31T20:41:22.159Z,8.23
2019-03-31T20:45:20.746Z,9.87
2019-03-31T20:49:19.525Z,17.23
2019-03-31T20:53:18.217Z,11.33
2019-03-31T20:57:16.782Z,8.80
2019-03-31T21:01:15.462Z,12.37
2019-03-31T21:05:15.545Z,9.50
2019-03-31T21:09:14.489Z,11.27
2019-03-31T21:13:13.108Z,9.93
2019-03-31T21:17:11.938Z,11.03
2019-03-31T21:21:10.579Z,11.13
2019-03-31T21:25:09.254Z,11.53
2019-03-31T21:29:07.889Z,15.30
2019-03-31T21:33:06.502Z,10.40
2019-03-31T21:37:08.182Z,11.63
2019-03-31T21:41:06.772Z,13.60
2019-03-31T21:45:06.743Z,12.23
2019-03-31T21:49:05.493Z,8.10
2019-03-31T21:53:04.088Z,10.17
2019-03-31T21:57:03.169Z,10.33
2019-03-31T22:01:11.173Z,11.00
2019-03-31T22:05:17.066Z,9.47
2019-03-31T22:09:16.651Z,8.83
2019-03-31T22:13:15.685Z,11.17
2019-03-31T22:17:16.152Z,11.37
2019-03-31T22:21:14.769Z,10.83
2019-03-31T22:25:13.423Z,9.03
2019-03-31T22:29:12.059Z,10.83
2019-03-31T22:33:13.085Z,8.37
2019-03-31T22:37:11.688Z,16.00
2019-03-31T22:41:10.296Z,8.33
2019-03-31T22:45:09.340Z,11.60
2019-03-31T22:49:08.121Z,10.27
2019-03-31T22:53:22.656Z,14.33
2019-03-31T22:57:21.368Z,8.10
2019-03-31T23:01:20.260Z,9.93
2019-03-31T23:05:18.937Z,13.30
2019-03-31T23:09:17.538Z,12.00
2019-03-31T23:13:16.124Z,16.30
2019-03-31T23:17:14.790Z,6.70
2019-03-31T23:21:13.472Z,7.37
2019-03-31T23:25:12.449Z,10.37
2019-03-31T23:29:11.061Z,9.37
2019-03-31T23:33:09.703Z,10.10
2019-03-31T23:37:08.265Z,13.67
2019-03-31T23:41:07.026Z,9.13
2019-03-31T23:45:07.458Z,11.40
2019-03-31T23:49:06.103Z,6.80
2019-03-31T23:53:04.782Z,9.17
2019-03-31T23:57:29.810Z,9.80
